createdAt,value
2017-03-12T00:00:00.146Z,1018.77
2017-03-12T00:01:13.204Z,1018.79
2017-03-12T00:02:26.271Z,1018.74
2017-03-12T00:03:39.345Z,1018.78
2017-03-12T00:04:52.416Z,1018.81
2017-03-12T00:06:05.507Z,1018.81
2017-03-12T00:07:18.546Z,1018.8
2017-03-12T00:08:31.599Z,1018.82
2017-03-12T00:09:44.345Z,1018.81
2017-03-12T00:10:57.020Z,1018.79
2017-03-12T00:12:10.142Z,1018.78
2017-03-12T00:13:23.228Z,1018.77
2017-03-12T00:14:36.302Z,1018.77
2017-03-12T00:15:49.354Z,1018.76
2017-03-12T00:17:02.438Z,1018.76
2017-03-12T00:18:15.546Z,1018.75
2017-03-12T00:19:28.241Z,1018.77
2017-03-12T00:20:41.317Z,1018.76
2017-03-12T00:21:54.397Z,1018.76
2017-03-12T00:23:07.500Z,1018.74
2017-03-12T00:24:20.599Z,1018.75
2017-03-12T00:25:33.647Z,1018.7
2017-03-12T00:26:46.716Z,1018.68
2017-03-12T00:27:59.813Z,1018.65
2017-03-12T00:29:12.859Z,1018.62
2017-03-12T00:30:25.528Z,1018.66
2017-03-12T00:31:38.639Z,1018.64
2017-03-12T00:32:51.969Z,1018.62
2017-03-12T00:34:05.039Z,1018.62
2017-03-12T00:35:18.085Z,1018.64
2017-03-12T00:36:30.785Z,1018.62
2017-03-12T00:37:43.896Z,1018.61
2017-03-12T00:38:56.975Z,1018.62
2017-03-12T00:40:10.068Z,1018.58
2017-03-12T00:41:23.141Z,1018.59
2017-03-12T00:42:36.234Z,1018.57
2017-03-12T00:43:49.306Z,1018.57
2017-03-12T00:45:01.971Z,1018.62
2017-03-12T00:46:14.643Z,1018.57
2017-03-12T00:47:27.318Z,1018.6
2017-03-12T00:48:40.389Z,1018.6
2017-03-12T00:49:53.510Z,1018.57
2017-03-12T00:51:06.601Z,1018.6
2017-03-12T00:52:19.272Z,1018.59
2017-03-12T00:53:32.347Z,1018.54
2017-03-12T00:54:45.415Z,1018.5
2017-03-12T00:55:58.485Z,1018.52
2017-03-12T00:57:11.178Z,1018.55
2017-03-12T00:58:24.231Z,1018.51
2017-03-12T00:59:37.307Z,1018.52
2017-03-12T01:00:50.373Z,1018.47
2017-03-12T01:02:03.500Z,1018.47
2017-03-12T01:03:16.593Z,1018.5
2017-03-12T01:04:29.567Z,1018.48
2017-03-12T01:05:42.631Z,1018.43
2017-03-12T01:06:55.330Z,1018.48
2017-03-12T01:08:08.439Z,1018.43
2017-03-12T01:09:21.143Z,1018.45
2017-03-12T01:10:34.244Z,1018.48
2017-03-12T01:11:47.288Z,1018.5
2017-03-12T01:13:00.331Z,1018.49
2017-03-12T01:14:13.002Z,1018.46
2017-03-12T01:15:26.104Z,1018.46
2017-03-12T01:16:39.173Z,1018.49
2017-03-12T01:17:52.264Z,1018.45
2017-03-12T01:19:05.354Z,1018.46
2017-03-12T01:20:18.439Z,1018.47
2017-03-12T01:21:31.509Z,1018.5
2017-03-12T01:22:44.249Z,1018.41
2017-03-12T01:23:56.938Z,1018.47
2017-03-12T01:25:10.064Z,1018.45
2017-03-12T01:26:23.140Z,1018.4
2017-03-12T01:27:36.237Z,1018.46
2017-03-12T01:28:48.953Z,1018.43
2017-03-12T01:30:02.070Z,1018.45
2017-03-12T01:31:15.122Z,1018.39
2017-03-12T01:32:28.187Z,1018.41
2017-03-12T01:33:41.283Z,1018.41
2017-03-12T01:34:53.962Z,1018.36
2017-03-12T01:36:06.979Z,1018.37
2017-03-12T01:37:20.052Z,1018.36
2017-03-12T01:38:33.174Z,1018.33
2017-03-12T01:39:46.245Z,1018.33
2017-03-12T01:40:59.338Z,1018.33
2017-03-12T01:42:12.400Z,1018.33
2017-03-12T01:43:25.473Z,1018.32
2017-03-12T01:44:38.128Z,1018.33
2017-03-12T01:45:51.269Z,1018.27
2017-03-12T01:47:04.347Z,1018.29
2017-03-12T01:48:17.411Z,1018.25
2017-03-12T01:49:30.082Z,1018.3
2017-03-12T01:50:42.778Z,1018.28
2017-03-12T01:51:55.826Z,1018.25
2017-03-12T01:53:08.871Z,1018.23
2017-03-12T01:54:21.919Z,1018.23
2017-03-12T01:55:34.985Z,1018.23
2017-03-12T01:56:47.683Z,1018.23
2017-03-12T01:58:00.750Z,1018.23
2017-03-12T01:59:13.920Z,1018.22
2017-03-12T02:00:26.598Z,1018.19
2017-03-12T02:01:39.292Z,1018.16
2017-03-12T02:02:52.338Z,1018.17
2017-03-12T02:04:05.436Z,1018.17
2017-03-12T02:05:18.129Z,1018.15
2017-03-12T02:06:31.203Z,1018.16
2017-03-12T02:07:43.872Z,1018.11
2017-03-12T02:08:56.894Z,1018.11
2017-03-12T02:10:09.598Z,1018.09
2017-03-12T02:11:22.283Z,1018.1
2017-03-12T02:12:34.971Z,1018.09
2017-03-12T02:13:48.001Z,1018.12
2017-03-12T02:15:00.665Z,1018.1
2017-03-12T02:16:13.737Z,1018.1
2017-03-12T02:17:26.797Z,1018.09
2017-03-12T02:18:39.863Z,1018.07
2017-03-12T02:19:52.957Z,1018.12
2017-03-12T02:21:05.666Z,1018.09
2017-03-12T02:22:18.376Z,1018.08
2017-03-12T02:23:31.048Z,1018.1
2017-03-12T02:24:44.113Z,1018.08
2017-03-12T02:25:57.202Z,1018.09
2017-03-12T02:27:10.250Z,1018.09
2017-03-12T02:28:23.324Z,1018.05
2017-03-12T02:29:35.664Z,1018.08
2017-03-12T02:30:48.364Z,1018.04
2017-03-12T02:32:01.042Z,1018.03
2017-03-12T02:33:14.084Z,1018.05
2017-03-12T02:34:26.802Z,1018.06
2017-03-12T02:35:39.476Z,1018.04
2017-03-12T02:36:52.157Z,1018.06
2017-03-12T02:38:05.260Z,1018.02
2017-03-12T02:39:17.963Z,1018.04
2017-03-12T02:40:30.306Z,1018.07
2017-03-12T02:41:43.381Z,1018.03
2017-03-12T02:42:56.057Z,1018.05
2017-03-12T02:44:09.167Z,1017.99
2017-03-12T02:45:21.872Z,1018.04
2017-03-12T02:46:34.171Z,1018.01
2017-03-12T02:47:47.255Z,1018.03
2017-03-12T02:49:00.305Z,1018.03
2017-03-12T02:50:13.404Z,1018
2017-03-12T02:51:26.503Z,1018.02
2017-03-12T02:52:39.598Z,1018.02
2017-03-12T02:53:52.712Z,1018.03
2017-03-12T02:55:05.863Z,1018.03
2017-03-12T02:56:18.552Z,1018.02
2017-03-12T02:57:31.630Z,1018.02
2017-03-12T02:58:44.691Z,1017.96
2017-03-12T02:59:57.772Z,1017.97
2017-03-12T03:01:10.500Z,1017.97
2017-03-12T03:02:23.561Z,1017.97
2017-03-12T03:03:36.624Z,1017.99
2017-03-12T03:04:49.684Z,1017.99
2017-03-12T03:06:02.729Z,1018.01
2017-03-12T03:07:15.765Z,1018.01
2017-03-12T03:08:28.472Z,1018.03
2017-03-12T03:09:41.536Z,1018.03
2017-03-12T03:10:54.660Z,1018.05
2017-03-12T03:12:07.321Z,1018
2017-03-12T03:13:20.373Z,1018.06
2017-03-12T03:14:33.446Z,1018
2017-03-12T03:15:46.520Z,1018.01
2017-03-12T03:16:59.221Z,1017.97
2017-03-12T03:18:12.299Z,1018.02
2017-03-12T03:19:25.381Z,1018.01
2017-03-12T03:20:38.070Z,1018.02
2017-03-12T03:21:51.124Z,1018
2017-03-12T03:23:04.197Z,1018.01
2017-03-12T03:24:16.903Z,1018
2017-03-12T03:25:29.961Z,1017.98
2017-03-12T03:26:43.081Z,1018.03
2017-03-12T03:27:56.153Z,1018
2017-03-12T03:29:09.269Z,1018.04
2017-03-12T03:30:22.344Z,1018.03
2017-03-12T03:31:34.633Z,1018.01
2017-03-12T03:32:47.703Z,1018.01
2017-03-12T03:34:00.771Z,1018.05
2017-03-12T03:35:13.502Z,1018.06
2017-03-12T03:36:26.597Z,1017.96
2017-03-12T03:37:39.345Z,1018
2017-03-12T03:38:52.015Z,1017.99
2017-03-12T03:40:05.114Z,1018.04
2017-03-12T03:41:18.180Z,1017.99
2017-03-12T03:42:31.228Z,1018.02
2017-03-12T03:43:44.324Z,1018.01
2017-03-12T03:44:56.996Z,1018.05
2017-03-12T03:46:10.105Z,1018.03
2017-03-12T03:47:22.808Z,1018.02
2017-03-12T03:48:35.129Z,1018.01
2017-03-12T03:49:48.192Z,1018
2017-03-12T03:51:01.251Z,1018.02
2017-03-12T03:52:14.311Z,1018.03
2017-03-12T03:53:27.367Z,1017.92
2017-03-12T03:54:40.033Z,1017.95
2017-03-12T03:55:52.708Z,1017.94
2017-03-12T03:57:05.774Z,1017.95
2017-03-12T03:58:18.846Z,1018
2017-03-12T03:59:31.551Z,1017.97
2017-03-12T04:00:44.618Z,1017.95
2017-03-12T04:01:57.684Z,1017.96
2017-03-12T04:03:10.763Z,1017.97
2017-03-12T04:04:23.821Z,1017.96
2017-03-12T04:05:36.114Z,1017.93
2017-03-12T04:06:49.211Z,1017.95
2017-03-12T04:08:02.268Z,1017.92
2017-03-12T04:09:15.339Z,1017.91
2017-03-12T04:10:28.383Z,1017.91
2017-03-12T04:11:41.057Z,1017.91
2017-03-12T04:12:54.122Z,1017.92
2017-03-12T04:14:07.201Z,1017.92
2017-03-12T04:15:20.509Z,1017.89
2017-03-12T04:16:33.617Z,1017.9
2017-03-12T04:17:46.681Z,1017.87
2017-03-12T04:18:59.776Z,1017.87
2017-03-12T04:20:12.826Z,1017.89
2017-03-12T04:21:25.896Z,1017.9
2017-03-12T04:22:39.043Z,1017.88
2017-03-12T04:23:51.789Z,1017.87
2017-03-12T04:25:04.860Z,1017.86
2017-03-12T04:26:17.960Z,1017.89
2017-03-12T04:27:31.023Z,1017.88
2017-03-12T04:28:44.094Z,1017.85
2017-03-12T04:29:57.142Z,1017.85
2017-03-12T04:31:10.219Z,1017.84
2017-03-12T04:32:23.327Z,1017.85
2017-03-12T04:33:36.401Z,1017.88
2017-03-12T04:34:49.477Z,1017.87
2017-03-12T04:36:02.547Z,1017.88
2017-03-12T04:37:15.642Z,1017.9
2017-03-12T04:38:28.708Z,1017.86
2017-03-12T04:39:41.399Z,1017.9
2017-03-12T04:40:54.094Z,1017.87
2017-03-12T04:42:07.029Z,1017.88
2017-03-12T04:43:20.140Z,1017.93
2017-03-12T04:44:33.195Z,1017.9
2017-03-12T04:45:46.236Z,1017.9
2017-03-12T04:46:59.255Z,1017.87
2017-03-12T04:48:12.331Z,1017.95
2017-03-12T04:49:25.423Z,1017.91
2017-03-12T04:50:38.574Z,1017.96
2017-03-12T04:51:51.682Z,1017.99
2017-03-12T04:53:04.739Z,1018.01
2017-03-12T04:54:17.436Z,1017.99
2017-03-12T04:55:30.482Z,1018
2017-03-12T04:56:43.577Z,1018.02
2017-03-12T04:57:56.649Z,1018.02
2017-03-12T04:59:09.336Z,1018.02
2017-03-12T05:00:22.411Z,1018.02
2017-03-12T05:01:35.460Z,1018.02
2017-03-12T05:02:48.144Z,1018
2017-03-12T05:04:01.198Z,1018
2017-03-12T05:05:14.262Z,1017.99
2017-03-12T05:06:27.307Z,1018.02
2017-03-12T05:07:40.011Z,1018.04
2017-03-12T05:08:53.085Z,1018.04
2017-03-12T05:10:06.156Z,1018.04
2017-03-12T05:11:19.245Z,1018.04
2017-03-12T05:12:32.323Z,1018.04
2017-03-12T05:13:45.395Z,1018.06
2017-03-12T05:14:58.441Z,1018.06
2017-03-12T05:16:11.136Z,1018.09
2017-03-12T05:17:23.808Z,1018.07
2017-03-12T05:18:36.480Z,1018.1
2017-03-12T05:19:49.212Z,1018.12
2017-03-12T05:21:02.336Z,1018.12
2017-03-12T05:22:15.411Z,1018.12
2017-03-12T05:23:28.500Z,1018.08
2017-03-12T05:24:41.561Z,1018.07
2017-03-12T05:25:54.291Z,1018.1
2017-03-12T05:27:07.373Z,1018.09
2017-03-12T05:28:20.437Z,1018.12
2017-03-12T05:29:33.515Z,1018.1
2017-03-12T05:30:46.584Z,1018.15
2017-03-12T05:31:59.628Z,1018.12
2017-03-12T05:33:12.679Z,1018.1
2017-03-12T05:34:25.749Z,1018.1
2017-03-12T05:35:38.866Z,1018.1
2017-03-12T05:36:51.562Z,1018.12
2017-03-12T05:38:04.612Z,1018.15
2017-03-12T05:39:17.674Z,1018.13
2017-03-12T05:40:30.745Z,1018.14
2017-03-12T05:41:44.096Z,1018.17
2017-03-12T05:42:57.171Z,1018.14
2017-03-12T05:44:10.257Z,1018.18
2017-03-12T05:45:23.333Z,1018.2
2017-03-12T05:46:36.383Z,1018.2
2017-03-12T05:47:49.495Z,1018.16
2017-03-12T05:49:02.600Z,1018.19
2017-03-12T05:50:15.246Z,1018.18
2017-03-12T05:51:27.913Z,1018.24
2017-03-12T05:52:41.036Z,1018.21
2017-03-12T05:53:54.082Z,1018.19
2017-03-12T05:55:06.779Z,1018.19
2017-03-12T05:56:19.817Z,1018.18
2017-03-12T05:57:32.859Z,1018.22
2017-03-12T05:58:45.959Z,1018.18
2017-03-12T05:59:58.630Z,1018.18
2017-03-12T06:01:11.721Z,1018.19
2017-03-12T06:02:24.795Z,1018.21
2017-03-12T06:03:37.525Z,1018.22
2017-03-12T06:04:50.584Z,1018.18
2017-03-12T06:06:03.659Z,1018.24
2017-03-12T06:07:16.313Z,1018.25
2017-03-12T06:08:29.005Z,1018.22
2017-03-12T06:09:42.054Z,1018.25
2017-03-12T06:10:55.113Z,1018.27
2017-03-12T06:12:08.194Z,1018.25
2017-03-12T06:13:20.909Z,1018.21
2017-03-12T06:14:33.836Z,1018.26
2017-03-12T06:15:46.909Z,1018.23
2017-03-12T06:16:59.993Z,1018.28
2017-03-12T06:18:13.046Z,1018.26
2017-03-12T06:19:26.122Z,1018.28
2017-03-12T06:20:39.213Z,1018.26
2017-03-12T06:21:52.302Z,1018.28
2017-03-12T06:23:05.375Z,1018.29
2017-03-12T06:24:18.054Z,1018.28
2017-03-12T06:25:31.129Z,1018.31
2017-03-12T06:26:44.249Z,1018.29
2017-03-12T06:27:57.310Z,1018.29
2017-03-12T06:29:10.412Z,1018.23
2017-03-12T06:30:23.089Z,1018.22
2017-03-12T06:31:36.159Z,1018.24
2017-03-12T06:32:49.240Z,1018.26
2017-03-12T06:34:02.296Z,1018.28
2017-03-12T06:35:14.970Z,1018.26
2017-03-12T06:36:28.086Z,1018.3
2017-03-12T06:37:41.176Z,1018.31
2017-03-12T06:38:53.884Z,1018.29
2017-03-12T06:40:06.997Z,1018.27
2017-03-12T06:41:20.043Z,1018.31
2017-03-12T06:42:33.096Z,1018.29
2017-03-12T06:43:46.178Z,1018.31
2017-03-12T06:44:59.256Z,1018.32
2017-03-12T06:46:12.330Z,1018.33
2017-03-12T06:47:25.002Z,1018.33
2017-03-12T06:48:37.697Z,1018.3
2017-03-12T06:49:50.770Z,1018.32
2017-03-12T06:51:03.861Z,1018.31
2017-03-12T06:52:16.974Z,1018.31
2017-03-12T06:53:29.736Z,1018.31
2017-03-12T06:54:42.829Z,1018.31
2017-03-12T06:55:55.900Z,1018.34
2017-03-12T06:57:09.244Z,1018.41
2017-03-12T06:58:22.315Z,1018.42
2017-03-12T06:59:35.411Z,1018.39
2017-03-12T07:00:48.151Z,1018.38
2017-03-12T07:02:01.218Z,1018.42
2017-03-12T07:03:14.326Z,1018.48
2017-03-12T07:04:27.394Z,1018.43
2017-03-12T07:05:40.557Z,1018.46
2017-03-12T07:06:53.657Z,1018.48
2017-03-12T07:08:06.732Z,1018.49
2017-03-12T07:09:19.399Z,1018.5
2017-03-12T07:10:32.487Z,1018.46
2017-03-12T07:11:45.197Z,1018.5
2017-03-12T07:12:58.282Z,1018.47
2017-03-12T07:14:11.005Z,1018.42
2017-03-12T07:15:22.899Z,1018.46
2017-03-12T07:16:35.603Z,1018.47
2017-03-12T07:17:48.694Z,1018.46
2017-03-12T07:19:01.768Z,1018.46
2017-03-12T07:20:14.440Z,1018.5
2017-03-12T07:21:27.566Z,1018.48
2017-03-12T07:22:40.649Z,1018.53
2017-03-12T07:23:53.703Z,1018.49
2017-03-12T07:25:06.815Z,1018.53
2017-03-12T07:26:19.518Z,1018.48
2017-03-12T07:27:32.596Z,1018.49
2017-03-12T07:28:45.662Z,1018.48
2017-03-12T07:29:58.996Z,1018.5
2017-03-12T07:31:11.699Z,1018.51
2017-03-12T07:32:24.774Z,1018.49
2017-03-12T07:33:37.874Z,1018.5
2017-03-12T07:34:50.929Z,1018.49
2017-03-12T07:36:03.985Z,1018.52
2017-03-12T07:37:16.707Z,1018.53
2017-03-12T07:38:29.424Z,1018.49
2017-03-12T07:39:42.536Z,1018.52
2017-03-12T07:40:55.271Z,1018.52
2017-03-12T07:42:08.336Z,1018.48
2017-03-12T07:43:21.433Z,1018.46
2017-03-12T07:44:34.132Z,1018.48
2017-03-12T07:45:46.850Z,1018.46
2017-03-12T07:46:59.895Z,1018.52
2017-03-12T07:48:12.987Z,1018.49
2017-03-12T07:49:26.109Z,1018.53
2017-03-12T07:50:39.164Z,1018.59
2017-03-12T07:51:51.879Z,1018.56
2017-03-12T07:53:04.945Z,1018.59
2017-03-12T07:54:18.075Z,1018.61
2017-03-12T07:55:30.767Z,1018.61
2017-03-12T07:56:43.813Z,1018.58
2017-03-12T07:57:56.458Z,1018.61
2017-03-12T07:59:09.544Z,1018.64
2017-03-12T08:00:22.246Z,1018.64
2017-03-12T08:01:35.338Z,1018.61
2017-03-12T08:02:48.034Z,1018.64
2017-03-12T08:04:00.780Z,1018.66
2017-03-12T08:05:13.841Z,1018.67
2017-03-12T08:06:26.538Z,1018.65
2017-03-12T08:07:39.276Z,1018.64
2017-03-12T08:08:52.401Z,1018.6
2017-03-12T08:10:05.512Z,1018.59
2017-03-12T08:11:18.592Z,1018.59
2017-03-12T08:12:31.680Z,1018.61
2017-03-12T08:13:44.809Z,1018.64
2017-03-12T08:14:57.930Z,1018.66
2017-03-12T08:16:10.991Z,1018.64
2017-03-12T08:17:23.685Z,1018.66
2017-03-12T08:18:36.740Z,1018.66
2017-03-12T08:19:49.870Z,1018.67
2017-03-12T08:21:02.935Z,1018.69
2017-03-12T08:22:14.830Z,1018.66
2017-03-12T08:23:27.517Z,1018.71
2017-03-12T08:24:39.818Z,1018.68
2017-03-12T08:25:52.944Z,1018.67
2017-03-12T08:27:05.664Z,1018.64
2017-03-12T08:28:18.706Z,1018.65
2017-03-12T08:29:31.794Z,1018.68
2017-03-12T08:30:44.866Z,1018.68
2017-03-12T08:31:57.547Z,1018.65
2017-03-12T08:33:10.618Z,1018.66
2017-03-12T08:34:22.955Z,1018.64
2017-03-12T08:35:35.231Z,1018.62
2017-03-12T08:36:48.281Z,1018.64
2017-03-12T08:38:01.344Z,1018.61
2017-03-12T08:39:14.421Z,1018.64
2017-03-12T08:40:27.495Z,1018.64
2017-03-12T08:41:40.589Z,1018.61
2017-03-12T08:42:53.701Z,1018.67
2017-03-12T08:44:06.760Z,1018.68
2017-03-12T08:45:19.047Z,1018.72
2017-03-12T08:46:31.748Z,1018.72
2017-03-12T08:47:44.824Z,1018.69
2017-03-12T08:48:57.938Z,1018.7
2017-03-12T08:50:11.010Z,1018.67
2017-03-12T08:51:24.076Z,1018.69
2017-03-12T08:52:36.766Z,1018.61
2017-03-12T08:53:49.849Z,1018.59
2017-03-12T08:55:02.939Z,1018.59
2017-03-12T08:56:15.991Z,1018.62
2017-03-12T08:57:29.025Z,1018.6
2017-03-12T08:58:42.094Z,1018.62
2017-03-12T08:59:55.151Z,1018.63
2017-03-12T09:01:08.222Z,1018.63
2017-03-12T09:02:20.943Z,1018.6
2017-03-12T09:03:34.032Z,1018.59
2017-03-12T09:04:47.135Z,1018.63
2017-03-12T09:06:00.219Z,1018.67
2017-03-12T09:07:13.282Z,1018.64
2017-03-12T09:08:26.350Z,1018.65
2017-03-12T09:09:39.419Z,1018.59
2017-03-12T09:10:52.487Z,1018.62
2017-03-12T09:12:05.158Z,1018.58
2017-03-12T09:13:17.084Z,1018.58
2017-03-12T09:14:30.155Z,1018.55
2017-03-12T09:15:43.241Z,1018.56
2017-03-12T09:16:56.324Z,1018.59
2017-03-12T09:18:09.416Z,1018.6
2017-03-12T09:19:22.537Z,1018.59
2017-03-12T09:20:35.595Z,1018.57
2017-03-12T09:21:47.930Z,1018.56
2017-03-12T09:23:00.999Z,1018.54
2017-03-12T09:24:14.137Z,1018.54
2017-03-12T09:25:27.188Z,1018.56
2017-03-12T09:26:40.311Z,1018.54
2017-03-12T09:27:53.379Z,1018.53
2017-03-12T09:29:06.053Z,1018.53
2017-03-12T09:30:19.163Z,1018.46
2017-03-12T09:31:32.291Z,1018.58
2017-03-12T09:32:45.380Z,1018.61
2017-03-12T09:33:58.454Z,1018.65
2017-03-12T09:35:11.133Z,1018.58
2017-03-12T09:36:24.199Z,1018.65
2017-03-12T09:37:36.875Z,1018.67
2017-03-12T09:38:49.945Z,1018.7
2017-03-12T09:40:03.007Z,1018.7
2017-03-12T09:41:15.683Z,1018.64
2017-03-12T09:42:28.361Z,1018.67
2017-03-12T09:43:41.428Z,1018.66
2017-03-12T09:44:54.475Z,1018.67
2017-03-12T09:46:07.549Z,1018.65
2017-03-12T09:47:20.642Z,1018.61
2017-03-12T09:48:33.362Z,1018.61
2017-03-12T09:49:46.464Z,1018.65
2017-03-12T09:50:59.568Z,1018.62
2017-03-12T09:52:12.646Z,1018.63
2017-03-12T09:53:25.717Z,1018.67
2017-03-12T09:54:38.439Z,1018.66
2017-03-12T09:55:51.760Z,1018.61
2017-03-12T09:57:04.836Z,1018.63
2017-03-12T09:58:17.907Z,1018.6
2017-03-12T09:59:30.173Z,1018.53
2017-03-12T10:00:43.263Z,1018.57
2017-03-12T10:01:56.318Z,1018.51
2017-03-12T10:03:09.380Z,1018.49
2017-03-12T10:04:22.435Z,1018.52
2017-03-12T10:05:35.522Z,1018.47
2017-03-12T10:06:48.193Z,1018.55
2017-03-12T10:08:01.275Z,1018.55
2017-03-12T10:09:14.410Z,1018.62
2017-03-12T10:10:27.110Z,1018.58
2017-03-12T10:11:40.184Z,1018.55
2017-03-12T10:12:53.294Z,1018.61
2017-03-12T10:14:06.373Z,1018.47
2017-03-12T10:15:19.489Z,1018.51
2017-03-12T10:16:32.564Z,1018.49
2017-03-12T10:17:45.655Z,1018.58
2017-03-12T10:18:58.728Z,1018.54
2017-03-12T10:20:11.819Z,1018.56
2017-03-12T10:21:24.927Z,1018.6
2017-03-12T10:22:37.624Z,1018.59
2017-03-12T10:23:50.323Z,1018.51
2017-03-12T10:25:03.438Z,1018.57
2017-03-12T10:26:16.510Z,1018.51
2017-03-12T10:27:29.203Z,1018.54
2017-03-12T10:28:42.302Z,1018.55
2017-03-12T10:29:55.369Z,1018.57
2017-03-12T10:31:08.039Z,1018.6
2017-03-12T10:32:20.755Z,1018.57
2017-03-12T10:33:33.831Z,1018.56
2017-03-12T10:34:46.945Z,1018.52
2017-03-12T10:36:00.051Z,1018.53
2017-03-12T10:37:13.181Z,1018.54
2017-03-12T10:38:26.264Z,1018.59
2017-03-12T10:39:39.311Z,1018.6
2017-03-12T10:40:52.386Z,1018.56
2017-03-12T10:42:05.460Z,1018.57
2017-03-12T10:43:18.170Z,1018.51
2017-03-12T10:44:30.862Z,1018.53
2017-03-12T10:45:43.958Z,1018.47
2017-03-12T10:46:57.061Z,1018.44
2017-03-12T10:48:10.127Z,1018.45
2017-03-12T10:49:23.224Z,1018.47
2017-03-12T10:50:36.354Z,1018.41
2017-03-12T10:51:49.441Z,1018.41
2017-03-12T10:53:02.520Z,1018.44
2017-03-12T10:54:15.586Z,1018.44
2017-03-12T10:55:28.303Z,1018.44
2017-03-12T10:56:41.450Z,1018.44
2017-03-12T10:57:54.180Z,1018.43
2017-03-12T10:59:06.913Z,1018.43
2017-03-12T11:00:20.260Z,1018.4
2017-03-12T11:01:32.947Z,1018.37
2017-03-12T11:02:46.061Z,1018.36
2017-03-12T11:03:59.113Z,1018.45
2017-03-12T11:05:11.816Z,1018.39
2017-03-12T11:06:24.119Z,1018.47
2017-03-12T11:07:37.236Z,1018.53
2017-03-12T11:08:49.913Z,1018.48
2017-03-12T11:10:03.024Z,1018.39
2017-03-12T11:11:15.707Z,1018.38
2017-03-12T11:12:28.020Z,1018.32
2017-03-12T11:13:40.766Z,1018.27
2017-03-12T11:14:53.846Z,1018.18
2017-03-12T11:16:06.934Z,1018.24
2017-03-12T11:17:20.037Z,1018.24
2017-03-12T11:18:33.134Z,1018.25
2017-03-12T11:19:46.255Z,1018.25
2017-03-12T11:20:59.339Z,1018.22
2017-03-12T11:22:12.471Z,1018.25
2017-03-12T11:23:25.166Z,1018.2
2017-03-12T11:24:38.238Z,1018.26
2017-03-12T11:25:51.326Z,1018.22
2017-03-12T11:27:04.427Z,1018.2
2017-03-12T11:28:17.515Z,1018.26
2017-03-12T11:29:29.896Z,1018.25
2017-03-12T11:30:42.594Z,1018.15
2017-03-12T11:31:55.692Z,1018.22
2017-03-12T11:33:08.431Z,1018.23
2017-03-12T11:34:21.154Z,1018.26
2017-03-12T11:35:34.224Z,1018.3
2017-03-12T11:36:47.318Z,1018.23
2017-03-12T11:38:00.411Z,1018.18
2017-03-12T11:39:13.489Z,1018.12
2017-03-12T11:40:26.550Z,1018.21
2017-03-12T11:41:39.250Z,1018.17
2017-03-12T11:42:52.342Z,1018.15
2017-03-12T11:44:05.397Z,1018.16
2017-03-12T11:45:18.092Z,1018.21
2017-03-12T11:46:30.780Z,1018.21
2017-03-12T11:47:43.880Z,1018.19
2017-03-12T11:48:56.929Z,1018.17
2017-03-12T11:50:09.993Z,1018.13
2017-03-12T11:51:23.101Z,1018.14
2017-03-12T11:52:35.808Z,1018.15
2017-03-12T11:53:48.511Z,1018.21
2017-03-12T11:55:01.559Z,1018.08
2017-03-12T11:56:14.672Z,1018.06
2017-03-12T11:57:27.023Z,1018.1
2017-03-12T11:58:39.736Z,1018.01
2017-03-12T11:59:52.835Z,1018.06
2017-03-12T12:01:05.513Z,1018.02
2017-03-12T12:02:18.582Z,1018.04
2017-03-12T12:03:31.631Z,1017.91
2017-03-12T12:04:44.694Z,1017.93
2017-03-12T12:05:58.014Z,1017.92
2017-03-12T12:07:10.715Z,1017.95
2017-03-12T12:08:23.760Z,1017.91
2017-03-12T12:09:36.448Z,1017.98
2017-03-12T12:10:49.509Z,1017.93
2017-03-12T12:12:02.598Z,1017.94
2017-03-12T12:13:15.286Z,1017.95
2017-03-12T12:14:28.359Z,1017.98
2017-03-12T12:15:41.461Z,1018.02
2017-03-12T12:16:54.586Z,1018.01
2017-03-12T12:18:07.671Z,1017.96
2017-03-12T12:19:20.725Z,1017.97
2017-03-12T12:20:33.794Z,1018.02
2017-03-12T12:21:46.890Z,1018.05
2017-03-12T12:22:59.978Z,1017.93
2017-03-12T12:24:13.111Z,1017.88
2017-03-12T12:25:25.431Z,1017.87
2017-03-12T12:26:37.749Z,1017.87
2017-03-12T12:27:50.840Z,1017.94
2017-03-12T12:29:03.940Z,1017.95
2017-03-12T12:30:17.067Z,1017.87
2017-03-12T12:31:29.761Z,1017.81
2017-03-12T12:32:42.853Z,1017.83
2017-03-12T12:33:55.924Z,1017.85
2017-03-12T12:35:08.985Z,1017.84
2017-03-12T12:36:22.036Z,1017.87
2017-03-12T12:37:33.970Z,1017.86
2017-03-12T12:38:47.888Z,1017.84
2017-03-12T12:40:01.003Z,1017.92
2017-03-12T12:41:13.322Z,1017.9
2017-03-12T12:42:26.037Z,1017.82
2017-03-12T12:43:39.162Z,1017.85
2017-03-12T12:44:52.254Z,1017.87
2017-03-12T12:46:05.376Z,1017.86
2017-03-12T12:47:17.720Z,1017.79
2017-03-12T12:48:30.778Z,1017.72
2017-03-12T12:49:43.496Z,1017.72
2017-03-12T12:50:56.559Z,1017.83
2017-03-12T12:52:09.656Z,1017.8
2017-03-12T12:53:22.009Z,1017.76
2017-03-12T12:54:34.758Z,1017.71
2017-03-12T12:55:47.867Z,1017.72
2017-03-12T12:57:00.974Z,1017.73
2017-03-12T12:58:13.697Z,1017.69
2017-03-12T12:59:26.782Z,1017.71
2017-03-12T13:00:39.476Z,1017.68
2017-03-12T13:01:52.583Z,1017.65
2017-03-12T13:03:05.650Z,1017.67
2017-03-12T13:04:18.376Z,1017.67
2017-03-12T13:05:31.437Z,1017.73
2017-03-12T13:06:44.497Z,1017.72
2017-03-12T13:07:57.589Z,1017.69
2017-03-12T13:09:10.662Z,1017.75
2017-03-12T13:10:23.379Z,1017.8
2017-03-12T13:11:35.921Z,1017.74
2017-03-12T13:12:48.976Z,1017.72
2017-03-12T13:14:02.066Z,1017.72
2017-03-12T13:15:15.201Z,1017.67
2017-03-12T13:16:28.350Z,1017.6
2017-03-12T13:17:41.421Z,1017.61
2017-03-12T13:18:54.514Z,1017.66
2017-03-12T13:20:07.591Z,1017.54
2017-03-12T13:21:20.734Z,1017.57
2017-03-12T13:22:33.837Z,1017.56
2017-03-12T13:23:46.905Z,1017.56
2017-03-12T13:24:59.968Z,1017.56
2017-03-12T13:26:13.022Z,1017.54
2017-03-12T13:27:26.060Z,1017.58
2017-03-12T13:28:39.157Z,1017.57
2017-03-12T13:29:51.926Z,1017.56
2017-03-12T13:31:04.998Z,1017.57
2017-03-12T13:32:18.104Z,1017.52
2017-03-12T13:33:31.196Z,1017.51
2017-03-12T13:34:44.260Z,1017.5
2017-03-12T13:35:57.315Z,1017.48
2017-03-12T13:37:10.426Z,1017.47
2017-03-12T13:38:23.484Z,1017.57
2017-03-12T13:39:36.579Z,1017.5
2017-03-12T13:40:49.668Z,1017.47
2017-03-12T13:42:02.372Z,1017.48
2017-03-12T13:43:15.765Z,1017.46
2017-03-12T13:44:28.455Z,1017.48
2017-03-12T13:45:40.799Z,1017.45
2017-03-12T13:46:53.868Z,1017.51
2017-03-12T13:48:06.964Z,1017.48
2017-03-12T13:49:20.043Z,1017.49
2017-03-12T13:50:33.133Z,1017.47
2017-03-12T13:51:45.835Z,1017.49
2017-03-12T13:52:58.898Z,1017.46
2017-03-12T13:54:11.969Z,1017.46
2017-03-12T13:55:24.678Z,1017.42
2017-03-12T13:56:37.822Z,1017.46
2017-03-12T13:57:50.913Z,1017.43
2017-03-12T13:59:04.038Z,1017.45
2017-03-12T14:00:17.102Z,1017.45
2017-03-12T14:01:30.180Z,1017.48
2017-03-12T14:02:42.898Z,1017.45
2017-03-12T14:03:56.018Z,1017.45
2017-03-12T14:05:09.090Z,1017.46
2017-03-12T14:06:22.185Z,1017.49
2017-03-12T14:07:35.251Z,1017.48
2017-03-12T14:08:48.320Z,1017.4
2017-03-12T14:10:01.402Z,1017.42
2017-03-12T14:11:13.722Z,1017.39
2017-03-12T14:12:26.793Z,1017.39
2017-03-12T14:13:39.480Z,1017.41
2017-03-12T14:14:52.158Z,1017.39
2017-03-12T14:16:04.830Z,1017.38
2017-03-12T14:17:17.919Z,1017.39
2017-03-12T14:18:30.997Z,1017.35
2017-03-12T14:19:44.090Z,1017.38
2017-03-12T14:20:57.190Z,1017.39
2017-03-12T14:22:10.261Z,1017.41
2017-03-12T14:23:23.352Z,1017.41
2017-03-12T14:24:36.448Z,1017.32
2017-03-12T14:25:49.149Z,1017.28
2017-03-12T14:27:02.239Z,1017.25
2017-03-12T14:28:15.362Z,1017.22
2017-03-12T14:29:28.432Z,1017.25
2017-03-12T14:30:41.556Z,1017.29
2017-03-12T14:31:54.302Z,1017.28
2017-03-12T14:33:07.352Z,1017.29
2017-03-12T14:34:20.059Z,1017.25
2017-03-12T14:35:33.142Z,1017.25
2017-03-12T14:36:46.253Z,1017.27
2017-03-12T14:37:59.375Z,1017.33
2017-03-12T14:39:12.484Z,1017.31
2017-03-12T14:40:25.545Z,1017.32
2017-03-12T14:41:38.617Z,1017.28
2017-03-12T14:42:51.686Z,1017.29
2017-03-12T14:44:04.753Z,1017.27
2017-03-12T14:45:17.450Z,1017.24